createdAt,value
2014-06-18T00:00:12.888Z,17.2
2014-06-18T00:01:17.579Z,17.17
2014-06-18T00:02:22.253Z,17.12
2014-06-18T00:03:27.239Z,17.12
2014-06-18T00:04:31.927Z,17.28
2014-06-18T00:05:36.601Z,17.48
2014-06-18T00:06:41.291Z,17.62
2014-06-18T00:07:45.980Z,17.74
2014-06-18T00:08:50.670Z,17.61
2014-06-18T00:09:55.359Z,17.52
2014-06-18T00:11:00.330Z,17.29
2014-06-18T00:12:05.035Z,17.47
2014-06-18T00:13:10.022Z,17.12
2014-06-18T00:14:14.711Z,17.04
2014-06-18T00:15:19.684Z,16.95
2014-06-18T00:16:24.373Z,16.97
2014-06-18T00:17:29.359Z,16.95
2014-06-18T00:18:34.048Z,16.99
2014-06-18T00:19:38.739Z,16.92
2014-06-18T00:20:43.413Z,17.25
2014-06-18T00:21:48.399Z,17.22
2014-06-18T00:22:53.385Z,17.26
2014-06-18T00:23:58.059Z,17.32
2014-06-18T00:25:02.749Z,17.36
2014-06-18T00:26:07.423Z,17.36
2014-06-18T00:27:12.113Z,17.38
2014-06-18T00:28:16.803Z,17.39
2014-06-18T00:29:21.772Z,17.51
2014-06-18T00:30:26.759Z,17.44
2014-06-18T00:31:31.448Z,17.29
2014-06-18T00:32:36.419Z,17.26
2014-06-18T00:33:41.108Z,17.28
2014-06-18T00:34:45.782Z,17.39
2014-06-18T00:35:50.472Z,16.82
2014-06-18T00:36:55.458Z,16.83
2014-06-18T00:38:00.132Z,16.92
2014-06-18T00:39:05.117Z,16.87
2014-06-18T00:40:09.791Z,16.89
2014-06-18T00:41:14.482Z,16.72
2014-06-18T00:42:19.171Z,16.67
2014-06-18T00:43:24.144Z,16.76
2014-06-18T00:44:28.146Z,16.68
2014-06-18T00:45:32.836Z,16.64
2014-06-18T00:46:37.806Z,16.79
2014-06-18T00:47:42.510Z,16.66
2014-06-18T00:48:47.184Z,16.6
2014-06-18T00:49:51.873Z,16.56
2014-06-18T00:50:56.547Z,16.58
2014-06-18T00:52:01.237Z,16.58
2014-06-18T00:53:05.911Z,16.48
2014-06-18T00:54:10.600Z,16.42
2014-06-18T00:55:15.289Z,16.34
2014-06-18T00:56:20.260Z,16.38
2014-06-18T00:57:25.248Z,16.37
2014-06-18T00:58:30.219Z,16.42
2014-06-18T00:59:34.909Z,16.54
2014-06-18T01:00:39.895Z,16.54
2014-06-18T01:01:44.569Z,16.78
2014-06-18T01:02:49.258Z,16.71
2014-06-18T01:03:53.948Z,16.7
2014-06-18T01:04:58.684Z,16.89
2014-06-18T01:06:03.374Z,17.06
2014-06-18T01:07:08.047Z,16.69
2014-06-18T01:08:12.737Z,16.38
2014-06-18T01:09:16.722Z,16.69
2014-06-18T01:10:21.414Z,16.64
2014-06-18T01:11:26.103Z,16.78
2014-06-18T01:12:30.777Z,16.88
2014-06-18T01:13:35.467Z,16.85
2014-06-18T01:14:40.156Z,16.72
2014-06-18T01:15:44.830Z,16.84
2014-06-18T01:16:49.521Z,17.01
2014-06-18T01:17:54.194Z,16.89
2014-06-18T01:18:58.884Z,16.97
2014-06-18T01:20:03.558Z,16.87
2014-06-18T01:21:08.247Z,16.85
2014-06-18T01:22:12.921Z,16.68
2014-06-18T01:23:17.611Z,16.76
2014-06-18T01:24:22.300Z,16.87
2014-06-18T01:25:26.990Z,16.76
2014-06-18T01:26:31.664Z,16.67
2014-06-18T01:27:36.369Z,16.82
2014-06-18T01:28:41.058Z,16.86
2014-06-18T01:29:45.732Z,16.95
2014-06-18T01:30:50.717Z,17
2014-06-18T01:31:55.391Z,17.09
2014-06-18T01:33:00.378Z,17.18
2014-06-18T01:34:05.054Z,16.8
2014-06-18T01:35:09.743Z,16.65
2014-06-18T01:36:14.417Z,16.6
2014-06-18T01:37:19.106Z,16.72
2014-06-18T01:38:23.780Z,16.68
2014-06-18T01:39:28.470Z,16.61
2014-06-18T01:40:33.441Z,16.54
2014-06-18T01:41:38.130Z,16.4
2014-06-18T01:42:42.803Z,16.45
2014-06-18T01:43:47.493Z,16.6
2014-06-18T01:44:52.464Z,16.64
2014-06-18T01:45:57.153Z,16.56
2014-06-18T01:47:01.828Z,16.57
2014-06-18T01:48:06.516Z,16.72
2014-06-18T01:49:11.206Z,16.72
2014-06-18T01:50:15.879Z,16.65
2014-06-18T01:51:20.569Z,16.6
2014-06-18T01:52:25.245Z,16.65
2014-06-18T01:53:29.933Z,16.74
2014-06-18T01:54:34.608Z,16.76
2014-06-18T01:55:39.298Z,16.56
2014-06-18T01:56:43.986Z,16.2
2014-06-18T01:57:48.974Z,16.15
2014-06-18T01:58:53.663Z,16.2
2014-06-18T01:59:58.337Z,16.19
2014-06-18T02:01:03.026Z,16.22
2014-06-18T02:02:08.012Z,16.01
2014-06-18T02:03:12.686Z,16.22
2014-06-18T02:04:17.375Z,16.42
2014-06-18T02:05:22.049Z,16.56
2014-06-18T02:06:26.741Z,16.46
2014-06-18T02:07:31.413Z,16.26
2014-06-18T02:08:36.400Z,16.16
2014-06-18T02:09:41.074Z,16.34
2014-06-18T02:10:45.763Z,16.4
2014-06-18T02:11:50.437Z,16.2
2014-06-18T02:12:55.424Z,16.42
2014-06-18T02:13:59.723Z,16.32
2014-06-18T02:15:04.396Z,16.58
2014-06-18T02:16:08.398Z,16.46
2014-06-18T02:17:13.072Z,16.48
2014-06-18T02:18:18.057Z,16.49
2014-06-18T02:19:22.732Z,16.43
2014-06-18T02:20:27.721Z,16.44
2014-06-18T02:21:32.707Z,16.51
2014-06-18T02:22:37.380Z,16.16
2014-06-18T02:23:42.070Z,16.14
2014-06-18T02:24:46.744Z,16.02
2014-06-18T02:25:51.731Z,16.14
2014-06-18T02:26:56.717Z,16.37
2014-06-18T02:28:01.392Z,16.38
2014-06-18T02:29:06.081Z,16.24
2014-06-18T02:30:10.754Z,16.16
2014-06-18T02:31:15.445Z,16.14
2014-06-18T02:32:20.416Z,16.21
2014-06-18T02:33:25.401Z,16
2014-06-18T02:34:30.075Z,16.16
2014-06-18T02:35:35.061Z,16.29
2014-06-18T02:36:39.752Z,16.35
2014-06-18T02:37:44.722Z,16.14
2014-06-18T02:38:49.411Z,16.24
2014-06-18T02:39:54.100Z,16.4
2014-06-18T02:40:58.774Z,16.45
2014-06-18T02:42:03.464Z,16.58
2014-06-18T02:43:08.138Z,16.62
2014-06-18T02:44:13.124Z,16.56
2014-06-18T02:45:18.109Z,16.57
2014-06-18T02:46:23.081Z,16.32
2014-06-18T02:47:27.772Z,16.38
2014-06-18T02:48:32.759Z,16.42
2014-06-18T02:49:36.760Z,16.1
2014-06-18T02:50:41.731Z,16.13
2014-06-18T02:51:46.420Z,16
2014-06-18T02:52:51.110Z,16.42
2014-06-18T02:53:56.096Z,16.45
2014-06-18T02:55:00.770Z,16.32
2014-06-18T02:56:05.756Z,16.52
2014-06-18T02:57:10.446Z,16.49
2014-06-18T02:58:15.134Z,16.49
2014-06-18T02:59:19.808Z,16.63
2014-06-18T03:00:24.498Z,16.55
2014-06-18T03:01:29.189Z,16.47
2014-06-18T03:02:33.864Z,16.48
2014-06-18T03:03:38.554Z,16.42
2014-06-18T03:04:43.242Z,16.35
2014-06-18T03:05:47.933Z,16.34
2014-06-18T03:06:52.621Z,16.14
2014-06-18T03:07:57.312Z,16.13
2014-06-18T03:09:02.282Z,16.26
2014-06-18T03:10:07.011Z,16.35
2014-06-18T03:11:12.038Z,16.3
2014-06-18T03:12:16.755Z,16.07
2014-06-18T03:13:21.487Z,16.04
2014-06-18T03:14:26.508Z,16
2014-06-18T03:15:31.508Z,15.92
2014-06-18T03:16:36.509Z,16.16
2014-06-18T03:17:41.198Z,16.24
2014-06-18T03:18:45.900Z,16.28
2014-06-18T03:19:50.602Z,16.33
2014-06-18T03:20:55.296Z,16.38
2014-06-18T03:21:59.975Z,16.43
2014-06-18T03:23:04.670Z,16.48
2014-06-18T03:24:09.364Z,16.38
2014-06-18T03:25:14.058Z,16.45
2014-06-18T03:26:18.733Z,16.34
2014-06-18T03:27:23.722Z,16.08
2014-06-18T03:28:28.729Z,16.24
2014-06-18T03:29:33.420Z,16.26
2014-06-18T03:30:38.392Z,16.3
2014-06-18T03:31:43.675Z,16.21
2014-06-18T03:32:48.366Z,16.27
2014-06-18T03:33:53.055Z,16.34
2014-06-18T03:34:57.746Z,16.04
2014-06-18T03:36:02.420Z,15.96
2014-06-18T03:37:07.406Z,16.11
2014-06-18T03:38:12.096Z,16.19
2014-06-18T03:39:17.066Z,16.28
2014-06-18T03:40:21.756Z,16.18
2014-06-18T03:41:26.445Z,16.19
2014-06-18T03:42:31.121Z,16.28
2014-06-18T03:43:35.810Z,16.12
2014-06-18T03:44:40.484Z,16.03
2014-06-18T03:45:45.173Z,16.1
2014-06-18T03:46:49.847Z,16.3
2014-06-18T03:47:54.536Z,16.12
2014-06-18T03:48:59.210Z,16.22
2014-06-18T03:50:03.900Z,16.11
2014-06-18T03:51:08.574Z,16.27
2014-06-18T03:52:13.560Z,16.44
2014-06-18T03:53:18.546Z,16.52
2014-06-18T03:54:23.220Z,16.44
2014-06-18T03:55:27.912Z,16.44
2014-06-18T03:56:33.178Z,16.38
2014-06-18T03:57:37.884Z,16.43
2014-06-18T03:58:42.557Z,16.17
2014-06-18T03:59:47.544Z,16.1
2014-06-18T04:00:52.218Z,16.23
2014-06-18T04:01:56.907Z,16.16
2014-06-18T04:03:01.581Z,16.08
2014-06-18T04:04:06.567Z,16.24
2014-06-18T04:05:11.241Z,16.33
2014-06-18T04:06:16.227Z,16.36
2014-06-18T04:07:21.197Z,16.45
2014-06-18T04:08:26.184Z,16.45
2014-06-18T04:09:30.860Z,16.42
2014-06-18T04:10:35.846Z,16.48
2014-06-18T04:11:40.817Z,16.49
2014-06-18T04:12:45.506Z,16.58
2014-06-18T04:13:50.180Z,16.52
2014-06-18T04:14:54.870Z,16.44
2014-06-18T04:15:59.558Z,16.58
2014-06-18T04:17:04.546Z,16.58
2014-06-18T04:18:09.516Z,16.49
2014-06-18T04:19:14.206Z,16.46
2014-06-18T04:20:18.880Z,16.4
2014-06-18T04:21:23.569Z,16.37
2014-06-18T04:22:28.244Z,16.38
2014-06-18T04:23:33.230Z,16.48
2014-06-18T04:24:37.232Z,16.53
2014-06-18T04:25:42.203Z,16.48
2014-06-18T04:26:46.893Z,16.56
2014-06-18T04:27:51.567Z,16.41
2014-06-18T04:28:56.256Z,16.38
2014-06-18T04:30:00.946Z,16.28
2014-06-18T04:31:05.619Z,16.26
2014-06-18T04:32:10.605Z,16.29
2014-06-18T04:33:15.279Z,16.36
2014-06-18T04:34:19.969Z,16.63
2014-06-18T04:35:24.659Z,16.75
2014-06-18T04:36:29.647Z,16.8
2014-06-18T04:37:34.336Z,16.76
2014-06-18T04:38:39.009Z,16.7
2014-06-18T04:39:43.699Z,16.8
2014-06-18T04:40:48.372Z,16.82
2014-06-18T04:41:53.062Z,16.96
2014-06-18T04:42:57.752Z,16.94
2014-06-18T04:44:02.441Z,17.05
2014-06-18T04:45:07.131Z,17.18
2014-06-18T04:46:11.805Z,17.24
2014-06-18T04:47:16.494Z,17.23
2014-06-18T04:48:21.168Z,17.24
2014-06-18T04:49:25.857Z,17.24
2014-06-18T04:50:29.845Z,17.51
2014-06-18T04:51:34.534Z,17.6
2014-06-18T04:52:39.521Z,17.7
2014-06-18T04:53:43.507Z,18.02
2014-06-18T04:54:48.494Z,18.1
2014-06-18T04:55:53.167Z,18.08
2014-06-18T04:56:57.857Z,18.06
2014-06-18T04:58:02.828Z,18.2
2014-06-18T04:59:07.516Z,18.15
2014-06-18T05:00:12.207Z,18.37
2014-06-18T05:01:17.177Z,18.36
2014-06-18T05:02:21.866Z,18.4
2014-06-18T05:03:26.555Z,18.48
2014-06-18T05:04:31.528Z,18.66
2014-06-18T05:05:36.218Z,18.64
2014-06-18T05:06:41.188Z,18.87
2014-06-18T05:07:45.878Z,18.73
2014-06-18T05:08:50.567Z,18.8
2014-06-18T05:09:55.538Z,18.92
2014-06-18T05:11:00.227Z,18.91
2014-06-18T05:12:04.526Z,18.93
2014-06-18T05:13:09.215Z,19.14
2014-06-18T05:14:13.906Z,19.14
2014-06-18T05:15:18.892Z,19.27
2014-06-18T05:16:23.862Z,19.36
2014-06-18T05:17:28.850Z,19.28
2014-06-18T05:18:33.540Z,19.45
2014-06-18T05:19:38.510Z,19.47
2014-06-18T05:20:43.200Z,19.52
2014-06-18T05:21:48.186Z,19.62
2014-06-18T05:22:53.158Z,19.63
2014-06-18T05:23:57.863Z,19.32
2014-06-18T05:25:02.553Z,19.62
2014-06-18T05:26:07.522Z,19.7
2014-06-18T05:27:12.213Z,19.78
2014-06-18T05:28:17.199Z,19.83
2014-06-18T05:29:21.873Z,19.76
2014-06-18T05:30:26.563Z,19.95
2014-06-18T05:31:31.251Z,20.09
2014-06-18T05:32:35.941Z,19.87
2014-06-18T05:33:40.630Z,19.96
2014-06-18T05:34:45.304Z,20.05
2014-06-18T05:35:49.994Z,19.96
2014-06-18T05:36:54.683Z,20.11
2014-06-18T05:37:59.357Z,19.82
2014-06-18T05:39:04.047Z,20.03
2014-06-18T05:40:08.737Z,20.3
2014-06-18T05:41:13.425Z,20.38
2014-06-18T05:42:18.099Z,20.4
2014-06-18T05:43:22.789Z,20.46
2014-06-18T05:44:27.478Z,20.64
2014-06-18T05:45:32.169Z,20.49
2014-06-18T05:46:36.858Z,20.36
2014-06-18T05:47:41.549Z,20.44
2014-06-18T05:48:46.284Z,20.46
2014-06-18T05:49:51.270Z,20.72
2014-06-18T05:50:56.241Z,20.76
2014-06-18T05:52:01.228Z,20.52
2014-06-18T05:53:05.917Z,21.05
2014-06-18T05:54:10.607Z,21.68
2014-06-18T05:55:15.296Z,21.85
2014-06-18T05:56:19.970Z,21.54
2014-06-18T05:57:24.659Z,21.34
2014-06-18T05:58:29.351Z,21.31
2014-06-18T05:59:33.353Z,21.29
2014-06-18T06:00:38.338Z,21.62
2014-06-18T06:01:43.012Z,21.4
2014-06-18T06:02:47.999Z,21.5
2014-06-18T06:03:52.688Z,21.6
2014-06-18T06:04:57.378Z,21.96
2014-06-18T06:06:02.067Z,21.83
2014-06-18T06:07:06.757Z,21.99
2014-06-18T06:08:11.430Z,21.9
2014-06-18T06:09:16.120Z,22.13
2014-06-18T06:10:21.121Z,22.89
2014-06-18T06:11:25.810Z,24.33
2014-06-18T06:12:29.814Z,25.96
2014-06-18T06:13:34.504Z,27.47
2014-06-18T06:14:39.193Z,28.58
2014-06-18T06:15:43.883Z,29.09
2014-06-18T06:16:48.572Z,29.58
2014-06-18T06:17:53.262Z,30.29
2014-06-18T06:18:57.967Z,30.72
2014-06-18T06:20:02.657Z,30.71
2014-06-18T06:21:07.346Z,31.03
2014-06-18T06:22:12.036Z,31.9
2014-06-18T06:23:16.725Z,31.97
2014-06-18T06:24:21.415Z,32.71
2014-06-18T06:25:26.104Z,32.73
2014-06-18T06:26:30.795Z,33.38
2014-06-18T06:27:35.484Z,33.24
2014-06-18T06:28:40.174Z,31.68
2014-06-18T06:29:44.863Z,30.91
2014-06-18T06:30:49.584Z,32.23
2014-06-18T06:31:54.586Z,32.65
2014-06-18T06:32:59.572Z,33.08
2014-06-18T06:34:04.262Z,33.13
2014-06-18T06:35:08.967Z,32.02
2014-06-18T06:36:13.657Z,30.1
2014-06-18T06:37:18.347Z,28.42
2014-06-18T06:38:23.036Z,27.07
2014-06-18T06:39:27.742Z,26.3
2014-06-18T06:40:32.431Z,26.22
2014-06-18T06:41:37.417Z,26.02
2014-06-18T06:42:42.107Z,25.54
2014-06-18T06:43:46.812Z,25.27
2014-06-18T06:44:51.501Z,24.68
2014-06-18T06:45:56.191Z,24.38
2014-06-18T06:47:00.880Z,24.17
2014-06-18T06:48:05.570Z,24.06
2014-06-18T06:49:09.869Z,23.96
2014-06-18T06:50:14.574Z,23.95
2014-06-18T06:51:19.262Z,23.2
2014-06-18T06:52:23.952Z,23.26
2014-06-18T06:53:28.641Z,22.41
2014-06-18T06:54:33.630Z,22.9
2014-06-18T06:55:38.335Z,23
2014-06-18T06:56:43.009Z,22.92
2014-06-18T06:57:47.698Z,22.94
2014-06-18T06:58:52.388Z,23.01
2014-06-18T06:59:57.077Z,22.66
2014-06-18T07:01:01.751Z,21.52
2014-06-18T07:02:06.441Z,21.68
2014-06-18T07:03:11.130Z,21.38
2014-06-18T07:04:15.820Z,22.43
2014-06-18T07:05:20.509Z,22.02
2014-06-18T07:06:25.182Z,21.47
2014-06-18T07:07:29.872Z,22.09
2014-06-18T07:08:34.563Z,21.74
2014-06-18T07:09:39.253Z,21.3
2014-06-18T07:10:44.239Z,20.22
2014-06-18T07:11:48.913Z,21.12
2014-06-18T07:12:53.602Z,21.67
2014-06-18T07:13:58.291Z,22.27
2014-06-18T07:15:02.981Z,22.54
2014-06-18T07:16:07.655Z,22.24
2014-06-18T07:17:12.344Z,22.44
2014-06-18T07:18:17.034Z,22.64
2014-06-18T07:19:21.725Z,22.67
2014-06-18T07:20:26.695Z,22.86
2014-06-18T07:21:31.385Z,23.04
2014-06-18T07:22:36.074Z,23.09
2014-06-18T07:23:40.764Z,22.71
2014-06-18T07:24:45.438Z,22.93
2014-06-18T07:25:50.127Z,22.95
2014-06-18T07:26:55.114Z,23.22
2014-06-18T07:27:59.802Z,23.32
2014-06-18T07:29:04.492Z,23.36
2014-06-18T07:30:09.181Z,22.83
2014-06-18T07:31:13.872Z,23.17
2014-06-18T07:32:18.545Z,24.16
2014-06-18T07:33:22.547Z,24.51
2014-06-18T07:34:27.236Z,24.73
2014-06-18T07:35:31.928Z,24.83
2014-06-18T07:36:36.601Z,24.68
2014-06-18T07:37:41.291Z,24.42
2014-06-18T07:38:45.293Z,24.38
2014-06-18T07:39:49.982Z,24.48
2014-06-18T07:40:54.672Z,24.67
2014-06-18T07:41:59.376Z,24.5
2014-06-18T07:43:04.067Z,24.25
2014-06-18T07:44:08.757Z,23.56
2014-06-18T07:45:13.447Z,22.74
2014-06-18T07:46:18.432Z,23.04
2014-06-18T07:47:23.122Z,22.28
2014-06-18T07:48:27.796Z,22.29
2014-06-18T07:49:32.486Z,23.21
2014-06-18T07:50:37.175Z,23.15
2014-06-18T07:51:41.865Z,23.52
2014-06-18T07:52:46.554Z,23.78
2014-06-18T07:53:50.556Z,23.63
2014-06-18T07:54:55.229Z,23.86
2014-06-18T07:55:59.920Z,23.78
2014-06-18T07:57:04.905Z,23.84
2014-06-18T07:58:09.891Z,23.76
2014-06-18T07:59:14.878Z,23.84
2014-06-18T08:00:19.552Z,23.85
2014-06-18T08:01:24.554Z,23.96
2014-06-18T08:02:29.243Z,23.89
2014-06-18T08:03:33.935Z,24.13
2014-06-18T08:04:38.921Z,24.08
2014-06-18T08:05:43.610Z,23.98
2014-06-18T08:06:48.597Z,24.18
2014-06-18T08:07:53.286Z,24.05
2014-06-18T08:08:57.959Z,23.24
2014-06-18T08:10:02.649Z,22.68
2014-06-18T08:11:07.636Z,22.26
2014-06-18T08:12:12.622Z,23.16
2014-06-18T08:13:17.311Z,23.4
2014-06-18T08:14:22.297Z,23.52
2014-06-18T08:15:26.971Z,23.63
2014-06-18T08:16:31.661Z,23.64
2014-06-18T08:17:36.352Z,23.8
2014-06-18T08:18:41.042Z,23.64
2014-06-18T08:19:45.731Z,23.47
2014-06-18T08:20:50.420Z,23.84
2014-06-18T08:21:55.407Z,23.75
2014-06-18T08:23:00.097Z,24.05
2014-06-18T08:24:04.771Z,23.77
2014-06-18T08:25:09.757Z,23.6
2014-06-18T08:26:14.445Z,23.72
2014-06-18T08:27:19.432Z,23.98
2014-06-18T08:28:24.121Z,24.16
2014-06-18T08:29:28.810Z,24.11
2014-06-18T08:30:33.486Z,23.76
2014-06-18T08:31:38.472Z,22.8
2014-06-18T08:32:43.459Z,23.35
2014-06-18T08:33:48.148Z,22.48
2014-06-18T08:34:52.837Z,22.47
2014-06-18T08:35:57.528Z,23.48
2014-06-18T08:37:02.201Z,23.92
2014-06-18T08:38:06.890Z,24.09
2014-06-18T08:39:11.580Z,24
2014-06-18T08:40:16.269Z,24.05
2014-06-18T08:41:20.959Z,24.09
2014-06-18T08:42:25.648Z,24.24
2014-06-18T08:43:30.338Z,24.11
2014-06-18T08:44:35.028Z,24.12
2014-06-18T08:45:40.015Z,24.06
2014-06-18T08:46:45.001Z,24.33
2014-06-18T08:47:49.691Z,24.07
2014-06-18T08:48:54.380Z,24.1
2014-06-18T08:49:59.070Z,24.44
2014-06-18T08:51:03.759Z,24.16
2014-06-18T08:52:08.745Z,24.01
2014-06-18T08:53:13.435Z,24.3
2014-06-18T08:54:18.124Z,23.96
2014-06-18T08:55:22.813Z,23.17
2014-06-18T08:56:27.502Z,23.25
2014-06-18T08:57:32.193Z,23.24
2014-06-18T08:58:36.883Z,23.32
2014-06-18T08:59:41.573Z,23.89
2014-06-18T09:00:46.279Z,24.23
2014-06-18T09:01:50.280Z,24.52
2014-06-18T09:02:54.970Z,24.62
2014-06-18T09:03:59.659Z,24.65
2014-06-18T09:05:04.349Z,24.62
2014-06-18T09:06:09.038Z,24.96
2014-06-18T09:07:13.728Z,24.84
2014-06-18T09:08:18.714Z,24.4
2014-06-18T09:09:23.403Z,24.59
2014-06-18T09:10:28.093Z,24.61
2014-06-18T09:11:32.781Z,24.03
2014-06-18T09:12:37.473Z,24.02
2014-06-18T09:13:42.163Z,24.39
2014-06-18T09:14:46.853Z,24.58
2014-06-18T09:15:51.541Z,24.32
2014-06-18T09:16:56.262Z,24.09
2014-06-18T09:18:00.952Z,24.16
2014-06-18T09:19:05.641Z,23.68
2014-06-18T09:20:10.330Z,24.24
2014-06-18T09:21:15.317Z,24.41
2014-06-18T09:22:20.006Z,24.53
2014-06-18T09:23:24.695Z,24.86
2014-06-18T09:24:29.386Z,25.06
2014-06-18T09:25:34.076Z,24.9
2014-06-18T09:26:39.360Z,24.93
2014-06-18T09:27:44.049Z,24.9
2014-06-18T09:28:48.738Z,24.78
2014-06-18T09:29:53.428Z,23.72
2014-06-18T09:30:58.133Z,23.92
2014-06-18T09:32:02.822Z,24.63
2014-06-18T09:33:07.512Z,24.9
2014-06-18T09:34:12.201Z,24.9
2014-06-18T09:35:17.187Z,24.67
2014-06-18T09:36:21.876Z,24.92
2014-06-18T09:37:26.566Z,24.84
2014-06-18T09:38:31.256Z,25.35
2014-06-18T09:39:35.948Z,25.46
2014-06-18T09:40:40.636Z,25.63
2014-06-18T09:41:44.638Z,25.69
2014-06-18T09:42:49.328Z,25.42
2014-06-18T09:43:54.033Z,25.85
2014-06-18T09:44:59.018Z,26
2014-06-18T09:46:03.693Z,26.17
2014-06-18T09:47:08.680Z,26.4
2014-06-18T09:48:13.369Z,26.08
2014-06-18T09:49:18.058Z,25.67
2014-06-18T09:50:22.747Z,26.18
2014-06-18T09:51:27.453Z,26.32
2014-06-18T09:52:32.143Z,26.36
2014-06-18T09:53:36.833Z,25.76
2014-06-18T09:54:41.523Z,25.94
2014-06-18T09:55:46.509Z,26.22
2014-06-18T09:56:51.199Z,26.7
2014-06-18T09:57:55.888Z,26.56
2014-06-18T09:59:00.578Z,26.5
2014-06-18T10:00:05.267Z,26.29
2014-06-18T10:01:10.252Z,26.83
2014-06-18T10:02:15.254Z,26.3
2014-06-18T10:03:19.945Z,25.32
2014-06-18T10:04:24.633Z,26.08
2014-06-18T10:05:29.323Z,26.49
2014-06-18T10:06:34.012Z,26.18
2014-06-18T10:07:38.688Z,26.06
2014-06-18T10:08:43.393Z,26.05
2014-06-18T10:09:48.379Z,25.86
2014-06-18T10:10:53.069Z,25.64
2014-06-18T10:11:57.759Z,25.49
2014-06-18T10:13:02.447Z,24.93
2014-06-18T10:14:07.137Z,25.18
2014-06-18T10:15:11.826Z,25.16
2014-06-18T10:16:16.516Z,25.12
2014-06-18T10:17:21.205Z,25.5
2014-06-18T10:18:25.895Z,25.79
2014-06-18T10:19:30.584Z,25.91
2014-06-18T10:20:35.573Z,26.34
2014-06-18T10:21:40.262Z,26.42
2014-06-18T10:22:44.952Z,26.68
2014-06-18T10:23:49.641Z,26.56
2014-06-18T10:24:54.330Z,26.36
2014-06-18T10:25:59.316Z,25.81
2014-06-18T10:27:04.006Z,26.1
2014-06-18T10:28:08.696Z,26.05
2014-06-18T10:29:13.385Z,26.06
2014-06-18T10:30:18.074Z,26.12
2014-06-18T10:31:22.764Z,26.23
2014-06-18T10:32:27.750Z,26.39
2014-06-18T10:33:32.439Z,26.23
2014-06-18T10:34:37.131Z,25.34
2014-06-18T10:35:41.820Z,25.31
2014-06-18T10:36:46.806Z,25.28
2014-06-18T10:37:51.496Z,25.25
2014-06-18T10:38:56.186Z,25.05
2014-06-18T10:40:00.860Z,24.81
2014-06-18T10:41:05.548Z,24.95
2014-06-18T10:42:10.238Z,24.82
2014-06-18T10:43:14.943Z,25.21
2014-06-18T10:44:19.929Z,25.21
2014-06-18T10:45:24.619Z,24.36
2014-06-18T10:46:29.308Z,25.01
2014-06-18T10:47:33.997Z,25.22
2014-06-18T10:48:38.689Z,24.28
2014-06-18T10:49:43.675Z,24.71
2014-06-18T10:50:48.365Z,24.67
2014-06-18T10:51:53.350Z,24.82
2014-06-18T10:52:58.024Z,25.38
2014-06-18T10:54:02.714Z,25.58
2014-06-18T10:55:07.403Z,25.12
2014-06-18T10:56:12.093Z,24.19
2014-06-18T10:57:16.782Z,24.93
2014-06-18T10:58:21.769Z,25.08
2014-06-18T10:59:26.458Z,25.21
2014-06-18T11:00:31.148Z,25.59
2014-06-18T11:01:35.837Z,25.28
2014-06-18T11:02:40.529Z,25.39
2014-06-18T11:03:45.217Z,25.34
2014-06-18T11:04:49.908Z,25.5
2014-06-18T11:05:54.581Z,25.71
2014-06-18T11:06:59.270Z,25.63
2014-06-18T11:08:04.256Z,25.45
2014-06-18T11:09:08.946Z,25.34
2014-06-18T11:10:13.635Z,25.45
2014-06-18T11:11:18.324Z,25.08
2014-06-18T11:12:23.013Z,25.24
2014-06-18T11:13:27.704Z,25.43
2014-06-18T11:14:32.393Z,25.73
2014-06-18T11:15:37.085Z,25.99
2014-06-18T11:16:41.790Z,25.71
2014-06-18T11:17:46.775Z,26.05
2014-06-18T11:18:51.466Z,26.24
2014-06-18T11:19:56.154Z,26.51
2014-06-18T11:21:01.141Z,26.42
2014-06-18T11:22:05.830Z,26.38
2014-06-18T11:23:10.520Z,25.45
2014-06-18T11:24:14.521Z,25.85
2014-06-18T11:25:19.211Z,26.1
2014-06-18T11:26:24.198Z,25.98
2014-06-18T11:27:28.199Z,26.12
2014-06-18T11:28:32.889Z,25.7
2014-06-18T11:29:37.580Z,25.56
2014-06-18T11:30:42.269Z,25.53
2014-06-18T11:31:46.974Z,24.79
2014-06-18T11:32:51.679Z,23.9
2014-06-18T11:33:56.369Z,24.93
2014-06-18T11:35:01.355Z,24.68
2014-06-18T11:36:06.045Z,25.2
2014-06-18T11:37:10.734Z,24.9
2014-06-18T11:38:15.424Z,25.21
2014-06-18T11:39:20.409Z,25.32
2014-06-18T11:40:25.084Z,26.07
2014-06-18T11:41:29.789Z,26.48
2014-06-18T11:42:34.462Z,26.55
2014-06-18T11:43:39.467Z,26.62
2014-06-18T11:44:44.156Z,26.75
2014-06-18T11:45:48.861Z,27.02
2014-06-18T11:46:53.550Z,26.88
2014-06-18T11:47:58.240Z,27.14
2014-06-18T11:49:02.929Z,27.17
2014-06-18T11:50:07.619Z,27.13
2014-06-18T11:51:12.308Z,26.81
2014-06-18T11:52:17.013Z,26.74
2014-06-18T11:53:21.703Z,26.74
2014-06-18T11:54:26.391Z,26.6
2014-06-18T11:55:31.379Z,26.8
2014-06-18T11:56:36.068Z,26.8
2014-06-18T11:57:40.759Z,27.05
2014-06-18T11:58:45.448Z,27.12
2014-06-18T11:59:50.435Z,27.15
2014-06-18T12:00:55.124Z,27
2014-06-18T12:01:59.814Z,26.81
2014-06-18T12:03:04.519Z,27
2014-06-18T12:04:09.521Z,27.3
2014-06-18T12:05:14.506Z,26.6
2014-06-18T12:06:19.196Z,26.01
2014-06-18T12:07:24.183Z,25.18
2014-06-18T12:08:29.168Z,25.96
2014-06-18T12:09:33.858Z,26.37
2014-06-18T12:10:38.862Z,26.49
2014-06-18T12:11:43.551Z,26.44
2014-06-18T12:12:48.241Z,26.64
2014-06-18T12:13:52.930Z,26.99
2014-06-18T12:14:57.635Z,27.2
2014-06-18T12:16:02.339Z,27.18
2014-06-18T12:17:07.070Z,26.9
2014-06-18T12:18:11.801Z,26.48
2014-06-18T12:19:16.844Z,26.42
2014-06-18T12:20:21.575Z,25.92
2014-06-18T12:21:26.297Z,25.72
2014-06-18T12:22:31.298Z,26.35
2014-06-18T12:23:36.018Z,26.75
2014-06-18T12:24:41.037Z,27.04
2014-06-18T12:25:45.737Z,27.11
2014-06-18T12:26:50.432Z,27.26
2014-06-18T12:27:55.424Z,27.35
2014-06-18T12:29:00.119Z,27.56
2014-06-18T12:30:04.813Z,27.42
2014-06-18T12:31:09.819Z,27.58
2014-06-18T12:32:14.808Z,27.59
2014-06-18T12:33:19.499Z,27.7
2014-06-18T12:34:24.191Z,27.09
2014-06-18T12:35:28.881Z,27.18
2014-06-18T12:36:33.588Z,27.4
2014-06-18T12:37:38.278Z,27.12
2014-06-18T12:38:42.970Z,27.08
2014-06-18T12:39:47.660Z,26.81
2014-06-18T12:40:52.380Z,26.98
2014-06-18T12:41:57.102Z,26.77
2014-06-18T12:43:01.808Z,26.16
2014-06-18T12:44:06.498Z,26.59
2014-06-18T12:45:11.187Z,27.08
2014-06-18T12:46:15.877Z,27.17
2014-06-18T12:47:20.566Z,26.95
2014-06-18T12:48:25.256Z,26.96
2014-06-18T12:49:29.945Z,27.31
2014-06-18T12:50:34.649Z,27.29
2014-06-18T12:51:39.339Z,27.25
2014-06-18T12:52:44.030Z,27.17
2014-06-18T12:53:48.721Z,27.44
2014-06-18T12:54:53.395Z,27.36
2014-06-18T12:55:58.099Z,27.43
2014-06-18T12:57:02.773Z,27.43
2014-06-18T12:58:07.478Z,27.17
2014-06-18T12:59:12.167Z,27.58
2014-06-18T13:00:16.857Z,27.95
2014-06-18T13:01:21.546Z,27.85
2014-06-18T13:02:26.236Z,27.46
2014-06-18T13:03:30.941Z,27.47
2014-06-18T13:04:35.661Z,27.03
2014-06-18T13:05:40.353Z,27.32
2014-06-18T13:06:45.043Z,26.5
2014-06-18T13:07:49.731Z,26.08
2014-06-18T13:08:54.421Z,26.62
2014-06-18T13:09:58.423Z,26.4
2014-06-18T13:11:03.097Z,26.28
2014-06-18T13:12:07.802Z,26.11
2014-06-18T13:13:12.490Z,26.01
2014-06-18T13:14:16.492Z,26.44
2014-06-18T13:15:21.480Z,26.68
2014-06-18T13:16:26.168Z,26.74
2014-06-18T13:17:31.155Z,26.84
2014-06-18T13:18:36.142Z,26.61
2014-06-18T13:19:40.832Z,26.58
2014-06-18T13:20:45.522Z,26.42
2014-06-18T13:21:50.211Z,26.55
2014-06-18T13:22:54.901Z,26.43
2014-06-18T13:23:59.590Z,26.62
2014-06-18T13:25:04.280Z,26.61
2014-06-18T13:26:08.969Z,26.66
2014-06-18T13:27:13.659Z,26.7
2014-06-18T13:28:18.333Z,26.76
2014-06-18T13:29:23.038Z,26.58
2014-06-18T13:30:27.726Z,26.6
2014-06-18T13:31:32.416Z,26.11
2014-06-18T13:32:37.105Z,25.83
2014-06-18T13:33:41.797Z,25.28
2014-06-18T13:34:46.486Z,25.66
2014-06-18T13:35:51.176Z,25.77
2014-06-18T13:36:55.865Z,25.35
2014-06-18T13:38:00.555Z,25.5
2014-06-18T13:39:05.229Z,25.63
2014-06-18T13:40:09.917Z,25.67
2014-06-18T13:41:14.920Z,25.59
2014-06-18T13:42:19.594Z,25.73
2014-06-18T13:43:24.283Z,25.86
2014-06-18T13:44:28.972Z,25.86
2014-06-18T13:45:33.663Z,25.74
2014-06-18T13:46:38.352Z,25.97
2014-06-18T13:47:43.043Z,26.15
2014-06-18T13:48:47.748Z,25.97
2014-06-18T13:49:52.422Z,26.08
2014-06-18T13:50:57.127Z,26.16
2014-06-18T13:52:01.816Z,26.42
2014-06-18T13:53:06.506Z,26.62
2014-06-18T13:54:11.195Z,26.44
2014-06-18T13:55:15.196Z,26.92
2014-06-18T13:56:19.886Z,26.96
2014-06-18T13:57:24.576Z,27.28